New Harbor, ME

43° 52' 34"N, 69° 29' 40"W, Elevation 65 ft.
Eastern Time

Hourly observations for the last 72 hours

Date Time Temperature (°F) Humi-
dity

(%)
Wind
(mph)
Pressure Rain (in) Sun
(W/m2)
ET
(in)
Air Dew 6 Hour 1 Hr 3 Hr 6 Hr Day
Alt
(in)
Sea
Level

(mb)
Max Min
16 20:00 61.1 59.7 62.7 60.7 95 SSE 5 G 14 29.66 1004.4 2.02 0 0.015
16 19:00 61.2 60.1 96 S 9 G 19 29.67 1004.7 2.02 0 0.015
16 18:00 60.8 59.7 96 SSE 6 G 12 29.67 1004.7 2.02 0 0.015
16 17:00 61.1 60.0 96 SSE 8 G 20 29.68 1005.0 2.02 42 0.013
16 16:00 62.2 61.0 96 SSE 8 G 16 29.69 1005.4 2.02 116 0.009
16 15:00 61.5 60.3 96 SSE 5 G 16 29.70 1005.8 2.02 127 0.006
16 14:00 61.7 60.5 61.8 59.5 96 S 8 G 15 29.71 1006.0 0.67 2.02 167 0.004
16 13:00 61.3 60.2 96 S 5 G 13 29.74 1007.0 2.02 54 0.003
16 12:00 61.2 60.1 96 S 2 G 7 29.76 1007.8 2.02 86 0.002
16 11:00 60.5 59.4 96 SSE 3 G 7 29.78 1008.5 0.67 2.02 35 0.001
16 10:00 60.5 59.4 96 SSE 4 G 15 29.80 1009.1 0.15 2.02 32 0.000
16 09:00 59.5 58.4 96 S 7 G 14 29.80 1009.3 0.52 1.87 5 0.000
16 08:00 59.8 58.7 60.3 59.0 96 S 6 G 12 29.82 1009.8 1.02 1.32 1.35 1.35 0 0.000
16 07:00 60.2 59.1 96 SSE 6 G 16 29.80 1009.2 0.24 0.33 0 0.000
16 06:00 59.8 58.7 96 S 4 G 9 29.80 1009.1 0.06 0.09 0 0.000
16 05:00 59.9 58.5 95 S 5 G 10 29.81 1009.5 0.03 0.03 0 0.000
16 04:00 59.6 58.2 95 S 4 G 12 29.82 1009.8 0.03 0.03 0 0.000
16 03:00 59.2 57.8 95 S 2 G 9 29.83 1010.2 0.00 0 0.000
16 02:00 59.1 57.7 59.2 58.7 95 SE 1 G 8 29.84 1010.6 0.00 0 0.000
16 01:00 59.0 57.6 95 SSE 1 G 4 29.86 1011.1 0.00 0 0.000
16 00:00 59.1 57.7 95 SSE 1 G 3 29.87 1011.6 0.00 0 0.016
15 23:00 59.0 57.6 95 Calm 29.87 1011.4 0.00 0 0.016
15 22:00 58.8 57.4 95 SSE 1 G 5 29.90 1012.4 0.00 0 0.016
15 21:00 58.9 57.5 95 Calm 29.91 1012.7 0.00 0 0.016
15 20:00 59.0 57.6 60.6 58.6 95 S 0 G 3 29.90 1012.5 0.00 0 0.016
15 19:00 58.7 57.0 94 S 0 G 3 29.90 1012.6 0.00 0 0.016
15 18:00 59.0 57.3 94 SSE 3 G 7 29.90 1012.5 0.00 0 0.016
15 17:00 59.3 57.3 93 Calm 29.89 1012.3 0.00 7 0.015
15 16:00 59.2 56.9 92 S 0 G 5 29.89 1012.3 0.00 63 0.013
15 15:00 59.9 57.3 91 SSE 0 G 3 29.90 1012.5 0.00 102 0.010
15 14:00 59.9 57.9 59.9 57.1 93 S 0 G 1 29.90 1012.7 0.00 176 0.007
15 13:00 58.6 56.6 93 Calm 29.91 1013.0 0.00 74 0.005
15 12:00 57.6 55.6 93 S 0 G 1 29.94 1013.8 0.00 76 0.003
15 11:00 57.5 55.2 92 Calm 29.94 1013.9 0.00 37 0.002
15 10:00 57.6 55.0 91 Calm 29.94 1014.0 0.00 49 0.001
15 09:00 57.3 54.7 91 NE 0 G 3 29.93 1013.7 0.00 30 0.000
15 08:00 57.3 54.7 58.5 56.9 91 ENE 0 G 2 29.93 1013.7 0.00 19 0.000
15 07:00 57.2 54.9 92 NE 0 G 2 29.91 1012.9 0.00 0 0.000
15 06:00 57.3 55.0 92 NE 0 G 3 29.92 1013.1 0.00 0 0.000
15 05:00 57.6 55.0 91 Calm 29.90 1012.7 0.00 0 0.000
15 04:00 57.9 55.3 91 ENE 1 G 6 29.89 1012.3 0.00 0 0.000
15 03:00 58.5 56.2 92 ENE 0 G 2 29.89 1012.4 0.00 0 0.000
15 02:00 58.2 56.2 60.7 56.8 93 Calm 29.91 1013.0 0.00 0 0.000
15 01:00 58.1 56.4 94 E 0 G 2 29.90 1012.5 0.00 0 0.000
15 00:00 57.1 55.4 94 Calm 29.89 1012.2 0.00 0 0.077
14 23:00 57.4 55.4 93 E 0 G 1 29.90 1012.4 0.00 0 0.077
14 22:00 57.8 55.5 92 Calm 29.88 1012.0 0.00 0 0.077
14 21:00 59.4 56.8 91 E 0 G 2 29.88 1011.9 0.00 0 0.077
14 20:00 60.7 57.8 75.1 60.7 90 E 0 G 1 29.88 1011.9 0.00 0 0.077
14 19:00 61.6 58.3 89 ENE 0 G 3 29.87 1011.4 0.00 0 0.077
14 18:00 63.6 59.3 86 NE 0 G 1 29.84 1010.4 0.00 0 0.077
14 17:00 66.5 60.1 80 NE 0 G 2 29.83 1010.3 0.00 32 0.073
14 16:00 73.7 61.6 66 NE 3 G 8 29.82 1010.0 0.00 287 0.065
14 15:00 74.5 62.4 66 NNE 3 G 14 29.82 1009.9 0.00 445 0.053
14 14:00 74.5 63.3 74.9 55.7 68 NNE 5 G 10 29.82 1010.0 0.00 540 0.039
14 13:00 74.2 61.7 65 N 6 G 10 29.83 1010.3 0.00 585 0.024
14 12:00 73.8 63.0 69 NNW 4 G 11 29.85 1010.8 0.00 464 0.010
14 11:00 70.1 61.8 75 NE 6 G 14 29.85 1010.8 0.00 541 0.002
14 10:00 65.3 61.0 86 NNE 3 G 10 29.86 1011.2 0.00 49 0.001
14 09:00 60.2 59.1 96 N 4 G 8 29.87 1011.4 0.00 37 0.000
14 08:00 55.7 54.3 55.7 52.5 95 N 1 G 4 29.86 1011.1 0.00 23 0.000
14 07:00 52.8 51.4 95 N 0 G 1 29.84 1010.4 0.00 5 0.000
14 06:00 54.1 52.7 95 N 0 G 1 29.84 1010.4 0.00 0 0.000
14 05:00 52.6 51.2 95 NNW 0 G 3 29.82 1009.8 0.00 0 0.000
14 04:00 53.3 51.6 94 Calm 29.82 1010.0 0.00 0 0.000
14 03:00 54.0 52.3 94 Calm 29.83 1010.1 0.00 0 0.000
14 02:00 55.0 53.3 60.2 54.7 94 Calm 29.85 1010.9 0.00 0 0.000
14 01:00 55.2 53.2 93 Calm 29.85 1010.7 0.00 0 0.000
14 00:00 57.3 55.3 93 SW 0 G 1 29.86 1011.2 0.00 0 0.071
13 23:00 58.5 56.2 92 W 1 G 3 29.88 1011.8 0.00 0 0.071
13 22:00 59.1 56.5 91 WSW 0 G 3 29.89 1012.2 0.00 0 0.071
13 21:00 59.9 56.7 89 WSW 1 G 6 29.90 1012.5 0.00 0 0.071

Data generated by WxSolution Version 1.9.1.8, Build 2020.02.16.